Time;durP1;ratioP1;P1;durP2;ratioP2;P2;SDS_P1;SDS_P2;PMS_P1;PMS_P2;Temp;Humidity;BMP_temperature;BMP_pressure;BME280_temperature;BME280_humidity;BME280_pressure;Samples;Min_cycle;Max_cycle;Signal;HPM_P1;HPM_P2
2022/12/28 00:01:20;;;;;;;4.20;2.40;;;7.20;99.90;;;;;;7395312;19;20149;-73
2022/12/28 00:03:46;;;;;;;2.83;2.33;;;7.30;99.90;;;;;;7394051;19;20159;-72
2022/12/28 00:06:13;;;;;;;3.53;2.60;;;7.20;99.90;;;;;;7397492;19;20175;-71
2022/12/28 00:08:39;;;;;;;4.70;2.20;;;7.20;99.90;;;;;;7396474;19;20148;-73
2022/12/28 00:11:12;;;;;;;5.70;2.60;;;7.20;99.90;;;;;;7395703;19;20138;-72
2022/12/28 00:13:38;;;;;;;3.07;2.37;;;7.20;99.90;;;;;;7397648;19;20139;-72
2022/12/28 00:16:19;;;;;;;4.80;2.30;;;7.30;99.90;;;;;;7394347;19;20137;-71
2022/12/28 00:18:45;;;;;;;3.53;2.30;;;7.30;99.90;;;;;;7396171;19;20155;-72
2022/12/28 00:21:10;;;;;;;3.40;2.20;;;7.30;99.90;;;;;;7396304;19;20135;-73
2022/12/28 00:23:37;;;;;;;3.50;2.63;;;7.20;99.90;;;;;;7393910;19;20139;-73
2022/12/28 00:26:09;;;;;;;5.23;2.43;;;7.10;99.90;;;;;;7395540;19;20167;-71
2022/12/28 00:28:35;;;;;;;3.83;2.53;;;7.30;99.90;;;;;;7394488;19;20152;-73
2022/12/28 00:31:01;;;;;;;4.87;2.40;;;7.10;99.90;;;;;;7394563;19;20143;-73
2022/12/28 00:33:27;;;;;;;4.93;2.83;;;7.10;99.90;;;;;;7393128;19;20154;-72
2022/12/28 00:35:58;;;;;;;3.53;2.20;;;7.10;99.90;;;;;;7393293;19;20745;-72
2022/12/28 00:38:24;;;;;;;4.00;2.50;;;7.20;99.90;;;;;;7395216;19;20147;-72
2022/12/28 00:40:51;;;;;;;4.70;2.57;;;7.20;99.90;;;;;;7393941;19;20149;-73
2022/12/28 00:43:17;;;;;;;5.03;2.30;;;7.10;99.90;;;;;;7393242;19;20134;-71
2022/12/28 00:45:47;;;;;;;4.83;2.40;;;7.20;99.90;;;;;;7394657;19;20139;-73
2022/12/28 00:48:14;;;;;;;3.40;2.00;;;7.20;99.90;;;;;;7394574;19;20590;-71
2022/12/28 00:50:40;;;;;;;2.83;2.10;;;7.20;99.90;;;;;;7394973;19;20152;-71
2022/12/28 00:53:06;;;;;;;3.27;2.10;;;7.20;99.90;;;;;;7395792;19;20142;-73
2022/12/28 00:55:32;;;;;;;3.20;1.90;;;7.20;99.90;;;;;;7394400;19;20146;-71
2022/12/28 00:57:59;;;;;;;4.03;2.20;;;7.00;99.90;;;;;;7395687;19;20630;-73
2022/12/28 01:00:25;;;;;;;2.60;2.20;;;6.90;99.90;;;;;;7397066;19;20166;-73
2022/12/28 01:02:51;;;;;;;2.43;1.97;;;6.80;99.90;;;;;;7394506;19;20482;-73
2022/12/28 01:05:17;;;;;;;3.33;2.10;;;7.00;99.90;;;;;;7392620;19;20151;-73
2022/12/28 01:07:43;;;;;;;3.80;2.03;;;6.70;99.90;;;;;;7395282;19;20734;-72
2022/12/28 01:10:09;;;;;;;3.43;2.10;;;6.70;99.90;;;;;;7394409;19;20160;-72
2022/12/28 01:12:35;;;;;;;3.47;2.03;;;6.80;99.90;;;;;;7393810;19;20153;-72
2022/12/28 01:15:06;;;;;;;1.93;1.60;;;6.90;99.90;;;;;;7394734;19;20142;-73
2022/12/28 01:17:32;;;;;;;6.63;2.00;;;6.80;99.90;;;;;;7395657;19;20594;-73
2022/12/28 01:19:59;;;;;;;3.37;2.50;;;6.70;99.90;;;;;;7395519;19;20141;-72
2022/12/28 01:22:26;;;;;;;5.53;2.07;;;6.50;99.90;;;;;;7393118;19;20221;-71
2022/12/28 01:24:51;;;;;;;2.43;1.80;;;7.00;99.90;;;;;;7392374;19;20627;-72
2022/12/28 01:27:18;;;;;;;3.00;1.77;;;7.10;99.90;;;;;;7395516;19;20139;-72
2022/12/28 01:29:43;;;;;;;2.30;1.60;;;6.80;99.90;;;;;;7392884;19;20148;-72
2022/12/28 01:32:09;;;;;;;3.43;2.03;;;6.90;99.90;;;;;;7393615;19;20542;-71
2022/12/28 01:34:35;;;;;;;3.23;1.43;;;7.10;99.90;;;;;;7393149;19;20138;-73
2022/12/28 01:37:01;;;;;;;2.13;1.83;;;7.10;99.90;;;;;;7392631;19;20145;-73
2022/12/28 01:39:27;;;;;;;3.17;1.90;;;7.10;99.90;;;;;;7395112;19;20142;-72
2022/12/28 01:41:53;;;;;;;3.57;1.70;;;7.10;99.90;;;;;;7392668;19;20159;-73
2022/12/28 01:44:24;;;;;;;3.33;1.53;;;6.90;99.90;;;;;;7395448;19;20161;-72
2022/12/28 01:47:03;;;;;;;1.80;1.53;;;6.80;99.90;;;;;;7391260;19;20151;-72
2022/12/28 01:49:40;;;;;;;4.37;1.60;;;6.50;99.90;;;;;;7391648;19;20150;-73
2022/12/28 01:52:19;;;;;;;3.50;1.40;;;6.60;99.90;;;;;;7395311;19;20155;-71
2022/12/28 01:54:59;;;;;;;4.63;1.60;;;6.80;99.90;;;;;;7394207;19;20150;-73
2022/12/28 01:57:28;;;;;;;2.57;1.47;;;7.10;99.90;;;;;;7395014;19;20138;-71
2022/12/28 02:00:05;;;;;;;2.87;1.70;;;7.30;99.90;;;;;;7392779;19;20161;-73
2022/12/28 02:02:31;;;;;;;4.50;1.40;;;7.40;99.90;;;;;;7397135;19;20142;-77
2022/12/28 02:04:59;;;;;;;2.80;1.50;;;7.40;99.90;;;;;;7391496;19;20502;-76
2022/12/28 02:07:41;;;;;;;1.60;1.20;;;7.40;99.90;;;;;;7394928;19;20466;-76
2022/12/28 02:10:08;;;;;;;4.23;1.60;;;7.30;99.90;;;;;;7393976;19;20126;-77
2022/12/28 02:12:34;;;;;;;2.13;1.50;;;7.30;99.90;;;;;;7393888;19;20141;-77
2022/12/28 02:15:01;;;;;;;4.03;1.60;;;7.40;99.90;;;;;;7393193;19;20126;-76
2022/12/28 02:17:27;;;;;;;2.10;1.30;;;7.50;99.90;;;;;;7396502;19;20131;-76
2022/12/28 02:19:52;;;;;;;2.90;1.70;;;7.50;99.90;;;;;;7385574;19;20201;-79
2022/12/28 02:22:21;;;;;;;3.00;1.33;;;7.40;99.90;;;;;;7393293;19;20135;-78
2022/12/28 02:25:29;;;;;;;2.67;1.57;;;7.50;99.90;;;;;;7393519;19;20155;-78
2022/12/28 02:28:06;;;;;;;2.40;1.60;;;7.30;99.90;;;;;;7395175;19;20138;-77
2022/12/28 02:30:38;;;;;;;3.80;1.60;;;7.30;99.90;;;;;;7394034;19;20198;-77
2022/12/28 02:33:10;;;;;;;3.73;1.30;;;7.30;99.90;;;;;;7387500;19;20184;-77
2022/12/28 02:35:53;;;;;;;2.97;1.33;;;7.40;99.90;;;;;;7394524;19;20144;-78
2022/12/28 02:38:41;;;;;;;2.97;1.30;;;7.30;99.90;;;;;;7394682;19;20131;-77
2022/12/28 02:41:14;;;;;;;1.97;1.27;;;7.40;99.90;;;;;;7392512;19;20134;-77
2022/12/28 02:43:40;;;;;;;1.90;1.27;;;7.30;99.90;;;;;;7392575;19;20652;-76
2022/12/28 02:52:27;;;;;;;2.50;0.93;;;7.50;99.90;;;;;;7396310;19;20134;-77
2022/12/28 02:58:21;;;;;;;1.13;1.03;;;7.60;99.90;;;;;;7395037;19;20593;-76
2022/12/28 03:01:12;;;;;;;2.27;0.90;;;7.60;99.90;;;;;;7388948;19;20134;-78
2022/12/28 03:04:05;;;;;;;2.77;1.10;;;7.50;99.90;;;;;;7391744;19;20150;-76
2022/12/28 03:09:54;;;;;;;1.93;1.10;;;7.60;99.90;;;;;;7386429;19;20150;-77
2022/12/28 03:12:42;;;;;;;2.80;1.10;;;7.80;99.90;;;;;;7389611;19;20138;-76
2022/12/28 03:15:28;;;;;;;1.73;1.10;;;7.90;99.90;;;;;;7391174;19;20670;-77
2022/12/28 03:31:55;;;;;;;2.50;0.97;;;7.60;99.90;;;;;;7393821;19;20260;-79
2022/12/28 03:34:22;;;;;;;1.33;1.10;;;7.70;99.90;;;;;;7390988;19;20138;-77
2022/12/28 03:37:13;;;;;;;1.70;1.00;;;7.80;99.90;;;;;;7392711;19;20142;-77
2022/12/28 03:40:22;;;;;;;1.37;0.90;;;7.90;99.90;;;;;;7392031;19;20485;-77
2022/12/28 03:46:05;;;;;;;2.50;0.87;;;7.70;99.90;;;;;;7390872;19;20645;-78
2022/12/28 03:48:33;;;;;;;2.23;1.10;;;7.80;99.90;;;;;;7390742;19;20494;-79
2022/12/28 03:50:58;;;;;;;3.23;0.93;;;7.90;99.90;;;;;;7393141;19;20134;-78
2022/12/28 03:53:35;;;;;;;1.67;1.00;;;7.90;99.90;;;;;;7391252;19;20165;-77
2022/12/28 03:56:06;;;;;;;1.87;0.80;;;8.00;99.90;;;;;;7391095;19;20590;-78
2022/12/28 03:58:32;;;;;;;1.50;0.80;;;8.00;99.90;;;;;;7388059;19;20147;-78
2022/12/28 04:00:58;;;;;;;0.90;0.80;;;7.80;99.90;;;;;;7389793;19;20150;-77
2022/12/28 04:03:24;;;;;;;0.70;0.60;;;7.90;99.90;;;;;;7389175;19;20262;-77
2022/12/28 04:05:51;;;;;;;1.00;0.80;;;7.90;99.90;;;;;;7388854;19;20142;-77
2022/12/28 04:08:17;;;;;;;1.33;0.87;;;7.90;99.90;;;;;;7389920;19;20213;-78
2022/12/28 04:10:43;;;;;;;1.37;0.70;;;7.90;99.90;;;;;;7390295;19;20135;-78
2022/12/28 04:13:09;;;;;;;3.80;1.10;;;8.00;99.90;;;;;;7389924;19;20878;-77
2022/12/28 04:15:35;;;;;;;0.87;0.70;;;7.90;99.90;;;;;;7391053;19;20130;-78
2022/12/28 04:18:01;;;;;;;0.97;0.80;;;8.00;99.90;;;;;;7389873;19;20207;-78
2022/12/28 04:20:26;;;;;;;0.90;0.70;;;7.90;99.90;;;;;;7391703;19;20210;-78
2022/12/28 04:22:52;;;;;;;1.00;0.90;;;7.80;99.90;;;;;;7388249;19;20672;-78
2022/12/28 04:25:18;;;;;;;1.20;0.87;;;7.90;99.90;;;;;;7392437;19;20130;-78
2022/12/28 04:27:44;;;;;;;1.80;1.00;;;7.90;99.90;;;;;;7388507;19;20494;-77
2022/12/28 04:30:10;;;;;;;1.40;1.07;;;7.80;99.90;;;;;;7392164;19;20134;-77
2022/12/28 04:32:35;;;;;;;0.77;0.77;;;7.80;99.90;;;;;;7395608;19;20587;-76
2022/12/28 04:35:02;;;;;;;2.27;0.90;;;7.80;99.90;;;;;;7395800;19;20170;-78
2022/12/28 04:37:27;;;;;;;0.97;0.70;;;7.90;99.90;;;;;;7395653;19;20134;-77
2022/12/28 04:39:53;;;;;;;1.50;0.90;;;7.90;99.90;;;;;;7395741;19;20552;-76
2022/12/28 04:42:19;;;;;;;1.67;0.80;;;7.80;99.90;;;;;;7394045;19;20587;-77
2022/12/28 04:44:44;;;;;;;1.27;0.70;;;7.70;99.90;;;;;;7394091;19;20264;-78
2022/12/28 04:47:10;;;;;;;2.30;0.80;;;7.80;99.90;;;;;;7397809;19;20142;-77
2022/12/28 04:49:36;;;;;;;3.07;0.90;;;7.90;99.90;;;;;;7393792;19;20155;-77
2022/12/28 04:52:02;;;;;;;1.43;0.90;;;8.10;99.90;;;;;;7394102;19;20173;-77
2022/12/28 04:54:27;;;;;;;2.97;0.83;;;8.20;99.90;;;;;;7397414;19;20138;-78
2022/12/28 04:56:53;;;;;;;1.27;0.87;;;8.00;99.90;;;;;;7395310;19;20123;-78
2022/12/28 04:59:19;;;;;;;1.33;0.70;;;7.90;99.90;;;;;;7395237;19;20154;-77
2022/12/28 05:01:44;;;;;;;1.77;0.80;;;8.00;99.90;;;;;;7395933;19;20177;-76
2022/12/28 05:04:10;;;;;;;1.90;0.70;;;8.00;99.90;;;;;;7392755;19;20633;-77
2022/12/28 05:06:36;;;;;;;3.33;0.80;;;7.90;99.90;;;;;;7396175;19;20161;-78
2022/12/28 05:09:02;;;;;;;1.80;1.13;;;7.90;99.90;;;;;;7393999;19;20146;-78
2022/12/28 05:11:28;;;;;;;0.73;0.50;;;7.90;99.90;;;;;;7392851;19;20259;-79
2022/12/28 05:13:55;;;;;;;4.77;1.03;;;8.00;99.90;;;;;;7393992;19;20150;-77
2022/12/28 05:16:23;;;;;;;1.47;0.83;;;8.00;99.90;;;;;;7393540;19;20147;-77
2022/12/28 05:18:49;;;;;;;1.93;0.80;;;8.00;99.90;;;;;;7395345;19;20151;-79
2022/12/28 05:21:21;;;;;;;0.60;0.60;;;8.00;99.90;;;;;;7393216;19;20142;-77
2022/12/28 05:23:47;;;;;;;1.70;0.87;;;8.00;99.90;;;;;;7394243;19;20162;-77
2022/12/28 05:26:16;;;;;;;1.73;0.60;;;8.10;99.90;;;;;;7393721;19;20603;-79
2022/12/28 05:28:42;;;;;;;1.80;0.90;;;8.00;99.90;;;;;;7395283;19;20152;-78
2022/12/28 05:31:11;;;;;;;1.63;0.93;;;7.80;99.90;;;;;;7394459;19;20603;-80
2022/12/28 05:33:37;;;;;;;1.57;0.70;;;7.80;99.90;;;;;;7393618;19;20155;-79
2022/12/28 05:36:12;;;;;;;1.20;0.70;;;8.00;99.90;;;;;;7393194;19;20162;-78
2022/12/28 05:38:38;;;;;;;0.93;0.67;;;8.10;99.90;;;;;;7393705;19;20142;-78
2022/12/28 05:41:05;;;;;;;2.00;0.80;;;8.30;99.90;;;;;;7392155;19;20139;-78
2022/12/28 05:43:30;;;;;;;1.60;0.80;;;8.20;99.90;;;;;;7392499;19;20143;-77
2022/12/28 05:46:04;;;;;;;0.93;0.70;;;8.20;99.90;;;;;;7392765;19;20143;-76
2022/12/28 05:48:32;;;;;;;2.20;0.80;;;8.40;99.90;;;;;;7394545;19;20206;-79
2022/12/28 05:51:03;;;;;;;1.77;0.70;;;8.40;99.90;;;;;;7393147;19;20215;-79
2022/12/28 05:53:30;;;;;;;1.00;0.90;;;8.20;99.90;;;;;;7393723;19;20158;-77
2022/12/28 05:56:09;;;;;;;1.70;1.13;;;7.90;99.90;;;;;;7392854;19;20234;-77
2022/12/28 05:58:35;;;;;;;1.57;0.73;;;8.10;99.90;;;;;;7393035;19;20157;-77
2022/12/28 06:01:15;;;;;;;1.67;0.90;;;8.20;99.90;;;;;;7394685;19;20142;-78
2022/12/28 06:03:42;;;;;;;2.87;0.77;;;8.30;99.90;;;;;;7393621;19;20500;-77
2022/12/28 06:06:10;;;;;;;1.33;0.80;;;8.40;99.90;;;;;;7392862;19;20135;-78
2022/12/28 06:08:37;;;;;;;3.57;0.80;;;8.20;99.90;;;;;;7391949;19;20145;-79
2022/12/28 06:11:07;;;;;;;2.90;1.03;;;8.20;99.90;;;;;;7394073;19;20603;-78
2022/12/28 06:13:34;;;;;;;2.20;0.93;;;8.20;99.90;;;;;;7393232;19;20189;-78
2022/12/28 06:16:21;;;;;;;4.10;0.83;;;8.20;99.90;;;;;;7393329;19;20626;-77
2022/12/28 06:18:47;;;;;;;1.60;0.83;;;8.30;99.90;;;;;;7395537;19;20138;-79
2022/12/28 06:21:16;;;;;;;1.50;0.93;;;8.20;99.90;;;;;;7393013;19;20162;-79
2022/12/28 06:23:43;;;;;;;1.27;0.73;;;8.30;99.90;;;;;;7392568;19;20154;-79
2022/12/28 06:26:19;;;;;;;1.50;0.80;;;8.50;99.90;;;;;;7392779;19;20159;-79
2022/12/28 06:28:45;;;;;;;0.50;0.50;;;8.40;99.90;;;;;;7393770;19;20134;-79
2022/12/28 06:31:14;;;;;;;0.93;0.80;;;8.40;99.90;;;;;;7392736;19;20138;-78
2022/12/28 06:33:41;;;;;;;2.43;0.90;;;8.50;99.90;;;;;;7392620;19;20150;-78
2022/12/28 06:36:14;;;;;;;1.47;0.83;;;8.60;99.90;;;;;;7392203;19;20206;-78
2022/12/28 06:38:40;;;;;;;1.23;0.80;;;8.60;99.90;;;;;;7392929;19;20163;-79
2022/12/28 06:41:08;;;;;;;2.57;1.13;;;8.50;99.90;;;;;;7391765;19;20501;-79
2022/12/28 06:43:36;;;;;;;4.30;1.77;;;8.40;99.90;;;;;;7392152;19;20608;-78
2022/12/28 06:46:03;;;;;;;2.87;0.80;;;8.40;99.90;;;;;;7393309;19;20143;-79
2022/12/28 06:48:29;;;;;;;2.20;0.80;;;8.30;99.90;;;;;;7394324;19;20210;-79
2022/12/28 06:50:57;;;;;;;1.63;1.07;;;8.20;99.90;;;;;;7392820;19;20161;-77
2022/12/28 06:53:24;;;;;;;0.87;0.70;;;8.30;99.90;;;;;;7390807;19;20149;-78
2022/12/28 06:56:02;;;;;;;1.07;0.70;;;8.40;99.90;;;;;;7393378;19;20138;-78
2022/12/28 06:58:29;;;;;;;3.60;2.27;;;8.30;99.90;;;;;;7393429;19;20138;-77
2022/12/28 07:00:55;;;;;;;7.67;4.90;;;8.30;99.90;;;;;;7391584;19;20179;-79
2022/12/28 07:03:22;;;;;;;3.87;1.50;;;8.40;99.90;;;;;;7393134;19;20134;-81
2022/12/28 07:05:47;;;;;;;2.63;1.30;;;8.20;99.90;;;;;;7392760;19;20227;-75
2022/12/28 07:08:13;;;;;;;1.07;0.80;;;8.20;99.90;;;;;;7389269;19;20157;-79
2022/12/28 07:10:40;;;;;;;0.70;0.70;;;8.30;99.90;;;;;;7391221;19;20146;-80
2022/12/28 07:13:06;;;;;;;1.73;0.87;;;8.40;99.90;;;;;;7389767;19;20173;-79
2022/12/28 07:15:34;;;;;;;2.43;1.60;;;8.40;99.90;;;;;;7391627;19;20139;-79
2022/12/28 07:18:00;;;;;;;1.87;1.10;;;8.60;99.90;;;;;;7392854;19;20142;-78
2022/12/28 07:20:27;;;;;;;1.23;1.00;;;8.50;99.90;;;;;;7391354;19;20162;-77
2022/12/28 07:22:53;;;;;;;2.40;0.93;;;8.50;99.90;;;;;;7392474;19;20130;-79
2022/12/28 07:25:19;;;;;;;2.77;0.93;;;8.60;99.90;;;;;;7394036;19;20143;-78
2022/12/28 07:27:45;;;;;;;2.77;1.00;;;8.50;99.90;;;;;;7390786;19;20210;-79
2022/12/28 07:30:11;;;;;;;1.83;1.07;;;8.50;99.90;;;;;;7386760;19;20153;-80
2022/12/28 07:32:37;;;;;;;0.80;0.73;;;8.50;99.90;;;;;;7389333;19;20150;-78
2022/12/28 07:35:04;;;;;;;1.73;1.20;;;8.60;99.90;;;;;;7390644;19;20239;-79
2022/12/28 07:37:29;;;;;;;2.10;1.10;;;8.50;99.90;;;;;;7392131;19;20151;-79
2022/12/28 07:39:55;;;;;;;1.30;0.70;;;8.50;99.90;;;;;;7388863;19;20756;-80
2022/12/28 07:42:21;;;;;;;1.70;0.90;;;8.50;99.90;;;;;;7393725;19;20187;-79
2022/12/28 07:44:47;;;;;;;1.33;0.80;;;8.60;99.90;;;;;;7387931;19;20226;-78
2022/12/28 07:47:13;;;;;;;0.97;0.63;;;8.60;99.90;;;;;;7390209;19;20142;-78
2022/12/28 07:49:39;;;;;;;1.87;0.80;;;8.70;99.90;;;;;;7388765;19;20146;-79
2022/12/28 07:52:05;;;;;;;1.60;0.90;;;8.50;99.90;;;;;;7391095;19;20147;-79
2022/12/28 07:54:31;;;;;;;3.87;0.90;;;8.50;99.90;;;;;;7389452;19;20757;-78
2022/12/28 07:56:57;;;;;;;2.63;1.10;;;8.50;99.90;;;;;;7390964;19;20172;-79
2022/12/28 07:59:23;;;;;;;3.23;1.13;;;8.60;99.90;;;;;;7389489;19;20165;-77
2022/12/28 08:01:49;;;;;;;1.60;1.00;;;8.70;99.90;;;;;;7386442;19;20155;-79
2022/12/28 08:04:16;;;;;;;2.07;0.90;;;8.70;99.90;;;;;;7387772;19;20475;-78
2022/12/28 08:06:43;;;;;;;3.60;1.03;;;8.70;99.90;;;;;;7397323;19;20135;-79
2022/12/28 08:09:11;;;;;;;2.57;0.90;;;8.70;99.90;;;;;;7395276;19;20142;-79
2022/12/28 08:11:40;;;;;;;1.73;1.00;;;8.60;99.90;;;;;;7396552;19;20123;-78
2022/12/28 08:14:07;;;;;;;2.13;1.17;;;8.60;99.90;;;;;;7396331;19;20188;-79
2022/12/28 08:16:35;;;;;;;2.60;1.20;;;8.60;99.90;;;;;;7399077;19;20135;-78
2022/12/28 08:19:01;;;;;;;1.30;1.20;;;8.70;99.90;;;;;;7396028;19;20134;-78
2022/12/28 08:21:31;;;;;;;1.30;1.10;;;8.90;99.90;;;;;;7396902;19;20138;-76
2022/12/28 08:23:57;;;;;;;4.83;3.00;;;8.70;99.90;;;;;;7397276;19;20202;-76
2022/12/28 08:26:31;;;;;;;2.63;1.70;;;8.70;99.90;;;;;;7398090;19;20141;-78
2022/12/28 08:28:59;;;;;;;4.93;3.00;;;8.70;99.90;;;;;;7413376;19;20138;-81
2022/12/28 08:31:31;;;;;;;1.90;1.13;;;8.80;99.90;;;;;;7397532;19;20253;-78
2022/12/28 08:33:58;;;;;;;1.87;1.10;;;8.70;99.90;;;;;;7395295;19;20146;-76
2022/12/28 08:36:24;;;;;;;1.70;1.20;;;8.80;99.90;;;;;;7395882;19;20187;-79
2022/12/28 08:38:51;;;;;;;2.67;1.20;;;8.80;99.90;;;;;;7397064;19;20134;-79
2022/12/28 08:41:22;;;;;;;4.03;1.30;;;8.90;99.90;;;;;;7396856;19;20135;-77
2022/12/28 08:43:48;;;;;;;1.63;1.20;;;8.90;99.90;;;;;;7396867;19;20150;-79
2022/12/28 08:46:25;;;;;;;3.27;1.17;;;8.90;99.90;;;;;;7396641;19;20193;-78
2022/12/28 08:48:53;;;;;;;2.83;1.00;;;9.00;99.90;;;;;;7393207;19;20146;-77
2022/12/28 08:51:21;;;;;;;3.80;1.50;;;8.90;99.90;;;;;;7394695;19;20147;-78
2022/12/28 08:53:48;;;;;;;3.50;1.97;;;9.10;99.90;;;;;;7393709;19;20137;-78
2022/12/28 08:56:26;;;;;;;4.50;2.43;;;9.00;99.90;;;;;;7395453;19;20123;-79
2022/12/28 08:58:53;;;;;;;4.63;1.80;;;9.00;99.90;;;;;;7392927;19;20123;-79
2022/12/28 09:01:22;;;;;;;4.03;1.87;;;9.10;99.90;;;;;;7393116;19;20163;-78
2022/12/28 09:03:50;;;;;;;3.17;1.53;;;9.10;99.90;;;;;;7387845;19;20605;-79
2022/12/28 09:06:18;;;;;;;3.73;1.80;;;9.10;99.90;;;;;;7393031;19;20522;-79
2022/12/28 09:08:44;;;;;;;3.13;1.20;;;9.10;99.90;;;;;;7394196;19;20135;-78
2022/12/28 09:11:12;;;;;;;2.13;1.47;;;9.10;99.90;;;;;;7393527;19;20215;-79
2022/12/28 09:13:39;;;;;;;3.23;1.40;;;9.20;99.90;;;;;;7387345;19;20598;-79
2022/12/28 09:16:07;;;;;;;1.90;1.33;;;9.20;99.90;;;;;;7391552;19;20153;-77
2022/12/28 09:18:34;;;;;;;1.33;1.10;;;9.20;99.90;;;;;;7407747;19;20137;-76
2022/12/28 09:21:15;;;;;;;3.13;1.20;;;9.00;99.90;;;;;;7410651;19;20145;-78
2022/12/28 09:23:42;;;;;;;4.07;1.40;;;9.10;99.90;;;;;;7393844;19;20561;-79
2022/12/28 09:26:20;;;;;;;2.33;1.53;;;9.10;99.90;;;;;;7390702;19;20151;-79
2022/12/28 09:28:56;;;;;;;2.33;1.30;;;9.20;99.90;;;;;;7393088;19;20656;-77
2022/12/28 09:31:25;;;;;;;1.83;1.30;;;9.10;99.90;;;;;;7391053;19;20130;-79
2022/12/28 09:34:00;;;;;;;1.60;1.30;;;9.20;99.90;;;;;;7391474;19;20134;-80
2022/12/28 09:36:34;;;;;;;1.43;1.17;;;9.20;99.90;;;;;;7391918;19;20465;-78
2022/12/28 09:39:03;;;;;;;1.67;1.10;;;9.20;99.90;;;;;;7391534;19;20213;-77
2022/12/28 09:41:33;;;;;;;2.10;1.27;;;9.20;99.90;;;;;;7391186;19;20126;-78
2022/12/28 09:44:30;;;;;;;3.43;1.33;;;9.20;99.90;;;;;;7393098;19;20551;-78
2022/12/28 09:47:24;;;;;;;2.07;1.30;;;9.10;99.90;;;;;;7392478;19;20613;-80
2022/12/28 09:50:05;;;;;;;3.30;1.30;;;9.20;99.90;;;;;;7386727;19;20607;-78
2022/12/28 09:52:30;;;;;;;4.20;2.33;;;9.20;99.90;;;;;;7390966;19;20475;-81
2022/12/28 09:55:11;;;;;;;6.27;2.90;;;9.20;99.90;;;;;;7391336;19;20220;-81
2022/12/28 09:57:40;;;;;;;4.50;2.80;;;9.20;99.90;;;;;;7395161;19;20146;-81
2022/12/28 10:00:14;;;;;;;5.70;2.53;;;9.20;99.90;;;;;;7393355;19;20143;-82
2022/12/28 10:02:41;;;;;;;6.57;4.00;;;9.20;99.90;;;;;;7392527;19;20135;-80
2022/12/28 10:05:07;;;;;;;3.80;3.03;;;9.40;99.90;;;;;;7398794;19;20190;-78
2022/12/28 10:07:36;;;;;;;8.93;6.03;;;9.40;99.90;;;;;;7394228;19;20237;-81
2022/12/28 10:10:02;;;;;;;5.23;3.30;;;9.40;99.90;;;;;;7390308;19;20643;-81
2022/12/28 10:12:29;;;;;;;8.77;5.73;;;9.40;99.90;;;;;;7394341;19;20154;-80
2022/12/28 10:14:55;;;;;;;9.53;5.63;;;9.50;99.90;;;;;;7391793;19;20145;-80
2022/12/28 10:17:26;;;;;;;4.63;3.17;;;9.40;99.90;;;;;;7390212;19;20139;-81
2022/12/28 10:19:57;;;;;;;4.10;2.50;;;9.40;99.90;;;;;;7393355;19;20181;-80
2022/12/28 10:22:25;;;;;;;8.43;2.67;;;9.50;99.90;;;;;;7391482;19;20591;-81
2022/12/28 10:24:52;;;;;;;6.10;3.53;;;9.60;99.90;;;;;;7394346;19;20146;-80
2022/12/28 10:27:22;;;;;;;8.33;4.43;;;9.70;99.90;;;;;;7392610;19;20171;-80
2022/12/28 10:29:51;;;;;;;5.20;2.33;;;9.80;99.90;;;;;;7388694;19;20281;-80
2022/12/28 10:32:18;;;;;;;2.00;1.50;;;9.90;99.90;;;;;;7393140;19;20130;-79
2022/12/28 10:34:57;;;;;;;3.07;1.80;;;9.90;99.90;;;;;;7393028;19;20162;-82
2022/12/28 10:37:28;;;;;;;3.33;1.50;;;9.90;99.90;;;;;;7391278;19;20142;-82
2022/12/28 10:39:58;;;;;;;2.23;1.20;;;9.90;99.90;;;;;;7394437;19;20154;-81
2022/12/28 10:42:42;;;;;;;2.63;1.00;;;10.10;99.90;;;;;;7394979;19;20171;-79
2022/12/28 10:45:40;;;;;;;1.97;1.10;;;10.30;99.90;;;;;;7392263;19;20182;-81
2022/12/28 10:48:20;;;;;;;2.43;1.47;;;10.30;99.90;;;;;;7391540;19;20147;-85
2022/12/28 10:51:00;;;;;;;3.87;2.33;;;10.20;99.90;;;;;;7395204;19;20147;-83
2022/12/28 10:53:31;;;;;;;2.47;1.40;;;10.20;99.90;;;;;;7393888;19;20134;-78
2022/12/28 10:56:06;;;;;;;2.27;1.00;;;10.40;99.90;;;;;;7394935;19;20618;-78
2022/12/28 10:58:34;;;;;;;3.47;1.03;;;10.50;99.90;;;;;;7393473;19;20160;-81
2022/12/28 11:01:14;;;;;;;2.10;0.83;;;10.40;99.90;;;;;;7392266;19;20707;-78
2022/12/28 11:03:56;;;;;;;1.93;1.20;;;10.40;99.90;;;;;;7393515;19;20154;-71
2022/12/28 11:06:31;;;;;;;1.23;0.70;;;10.50;99.90;;;;;;7396864;19;20586;-78
2022/12/28 11:09:11;;;;;;;1.30;0.97;;;10.60;99.90;;;;;;7388444;19;20130;-72
2022/12/28 11:11:38;;;;;;;3.70;1.03;;;10.60;99.90;;;;;;7389108;19;20135;-78
2022/12/28 11:14:23;;;;;;;1.30;0.80;;;10.70;99.90;;;;;;7396964;19;20165;-76
2022/12/28 11:16:49;;;;;;;3.27;2.37;;;10.80;99.90;;;;;;7394881;19;20134;-76
2022/12/28 11:19:16;;;;;;;1.73;1.23;;;10.90;99.90;;;;;;7392781;19;20559;-76
2022/12/28 11:21:42;;;;;;;2.17;1.13;;;10.90;99.90;;;;;;7392797;19;20141;-80
2022/12/28 11:24:16;;;;;;;1.80;1.00;;;10.80;99.90;;;;;;7390579;19;20838;-76
2022/12/28 11:26:46;;;;;;;3.27;1.30;;;10.80;99.90;;;;;;7392948;19;20530;-78
2022/12/28 11:29:17;;;;;;;2.50;1.00;;;10.60;99.90;;;;;;7394976;19;20619;-76
2022/12/28 11:31:59;;;;;;;1.17;0.87;;;10.50;99.90;;;;;;7391948;19;20171;-77
2022/12/28 11:34:27;;;;;;;2.63;1.60;;;10.50;99.90;;;;;;7393798;19;20142;-77
2022/12/28 11:36:54;;;;;;;3.23;1.73;;;10.40;99.90;;;;;;7394071;19;20689;-76
2022/12/28 11:39:25;;;;;;;3.37;0.90;;;10.50;99.90;;;;;;7392282;19;20138;-75
2022/12/28 11:41:56;;;;;;;2.80;1.57;;;10.50;99.90;;;;;;7395567;19;20146;-75
2022/12/28 11:44:31;;;;;;;1.53;0.80;;;10.50;99.90;;;;;;7398417;19;20130;-76
2022/12/28 11:47:15;;;;;;;1.13;0.80;;;10.50;99.90;;;;;;7395661;19;20158;-75
2022/12/28 11:49:46;;;;;;;2.60;1.27;;;10.50;99.90;;;;;;7397614;19;20142;-76
2022/12/28 11:52:22;;;;;;;8.23;4.70;;;10.60;99.90;;;;;;7394978;19;20134;-79
2022/12/28 11:54:56;;;;;;;5.57;2.07;;;10.70;99.90;;;;;;7398050;19;20160;-79
2022/12/28 11:57:35;;;;;;;0.80;0.70;;;10.70;99.90;;;;;;7390871;19;20154;-78
2022/12/28 12:00:36;;;;;;;1.40;0.90;;;10.70;99.90;;;;;;7391642;19;20139;-78
2022/12/28 12:03:02;;;;;;;2.30;0.90;;;10.70;99.90;;;;;;7392782;19;20157;-78
2022/12/28 12:05:37;;;;;;;1.13;0.80;;;10.70;99.90;;;;;;7390596;19;20170;-76
2022/12/28 12:08:09;;;;;;;2.03;0.90;;;10.80;99.90;;;;;;7392893;19;20618;-77
2022/12/28 12:10:37;;;;;;;1.60;1.03;;;11.00;99.90;;;;;;7392188;19;20230;-76
2022/12/28 12:13:29;;;;;;;4.60;1.10;;;11.00;99.90;;;;;;7391222;19;20141;-76
2022/12/28 12:16:05;;;;;;;2.30;1.50;;;10.90;99.90;;;;;;7393413;19;20147;-75
2022/12/28 12:18:43;;;;;;;1.63;0.80;;;10.90;99.90;;;;;;7394061;19;20157;-77
2022/12/28 12:21:19;;;;;;;1.50;0.90;;;10.80;99.90;;;;;;7392587;19;20155;-77
2022/12/28 12:23:51;;;;;;;1.63;0.70;;;10.70;99.90;;;;;;7392032;19;20871;-77
2022/12/28 12:26:28;;;;;;;1.50;0.93;;;10.70;99.90;;;;;;7396838;19;20139;-76
2022/12/28 12:29:14;;;;;;;2.97;1.43;;;10.80;99.90;;;;;;7395395;19;20138;-78
2022/12/28 12:31:49;;;;;;;9.27;3.47;;;10.90;99.90;;;;;;7396476;19;20142;-83
2022/12/28 12:34:22;;;;;;;2.60;1.37;;;11.10;99.90;;;;;;7394253;19;20138;-80
2022/12/28 12:37:30;;;;;;;2.33;0.90;;;11.20;99.90;;;;;;7393890;19;20153;-83
2022/12/28 12:40:08;;;;;;;1.00;0.80;;;11.30;99.90;;;;;;7391869;19;20221;-81
2022/12/28 12:42:47;;;;;;;2.07;0.70;;;11.30;99.90;;;;;;7391946;19;20169;-80
2022/12/28 12:45:35;;;;;;;1.70;0.73;;;11.30;99.90;;;;;;7392950;19;20145;-81
2022/12/28 12:48:22;;;;;;;1.97;0.80;;;11.30;99.90;;;;;;7395262;19;20467;-76
2022/12/28 12:50:54;;;;;;;0.90;0.60;;;11.40;99.90;;;;;;7392224;19;20152;-80
2022/12/28 12:53:29;;;;;;;1.40;0.80;;;11.40;99.90;;;;;;7394915;19;20190;-79
2022/12/28 12:56:28;;;;;;;1.70;0.80;;;11.40;99.90;;;;;;7391438;19;20145;-79
2022/12/28 12:59:01;;;;;;;4.77;0.70;;;11.30;99.90;;;;;;7392340;19;20236;-80
2022/12/28 13:02:05;;;;;;;1.50;0.60;;;11.20;99.90;;;;;;7392300;19;20134;-78
2022/12/28 13:04:34;;;;;;;1.63;0.70;;;11.10;99.90;;;;;;7393276;19;20154;-78
2022/12/28 13:07:03;;;;;;;2.03;0.80;;;11.10;99.90;;;;;;7393611;19;20142;-77
2022/12/28 13:09:33;;;;;;;1.40;0.77;;;11.10;99.90;;;;;;7394455;19;20159;-80
2022/12/28 13:12:00;;;;;;;2.70;1.00;;;11.00;99.90;;;;;;7389639;19;20134;-81
2022/12/28 13:14:25;;;;;;;2.60;0.80;;;11.30;99.90;;;;;;7386361;19;20138;-78
2022/12/28 13:16:54;;;;;;;2.23;0.83;;;11.20;99.90;;;;;;7387226;19;20165;-79
2022/12/28 13:19:26;;;;;;;1.10;0.80;;;11.10;99.90;;;;;;7386449;19;20153;-78
2022/12/28 13:21:52;;;;;;;1.70;0.80;;;11.00;99.90;;;;;;7388443;19;20146;-76
2022/12/28 13:24:24;;;;;;;2.90;1.90;;;11.00;99.90;;;;;;7391911;19;20141;-79
2022/12/28 13:26:52;;;;;;;2.33;1.70;;;11.00;99.90;;;;;;7400639;19;20122;-81
2022/12/28 13:29:24;;;;;;;2.20;1.10;;;11.00;99.90;;;;;;7400035;19;20138;-78
2022/12/28 13:31:50;;;;;;;2.80;1.10;;;10.90;99.90;;;;;;7395898;19;20171;-79
2022/12/28 13:34:28;;;;;;;0.97;0.70;;;10.80;99.90;;;;;;7393645;19;20165;-79
2022/12/28 13:36:59;;;;;;;1.40;1.00;;;11.10;99.90;;;;;;7392141;19;20177;-81
2022/12/28 13:39:30;;;;;;;1.73;1.00;;;11.00;99.90;;;;;;7393282;19;20135;-79
2022/12/28 13:41:57;;;;;;;2.87;1.73;;;10.90;99.90;;;;;;7394967;19;20149;-80
2022/12/28 13:44:59;;;;;;;2.87;2.03;;;10.90;99.90;;;;;;7394957;19;20134;-79